createdAt,value
2022-09-30T00:01:48.908Z,97569.78
2022-09-30T00:07:12.848Z,97566.72
2022-09-30T00:12:43.881Z,97574.06
2022-09-30T00:18:11.884Z,97570.94
2022-09-30T00:23:35.882Z,97581.97
2022-09-30T00:29:02.891Z,97578.91
2022-09-30T00:34:29.896Z,97580.69
2022-09-30T00:39:54.875Z,97577.78
2022-09-30T00:45:20.866Z,97581.09
2022-09-30T00:50:52.922Z,97586.22
2022-09-30T00:56:19.897Z,97580.63
2022-09-30T01:01:47.927Z,97591.47
2022-09-30T01:07:18.866Z,97605.94
2022-09-30T01:12:49.970Z,97609.94
2022-09-30T01:18:21.860Z,97604.59
2022-09-30T01:24:24.968Z,97606.28
2022-09-30T01:30:16.898Z,97592.22
2022-09-30T01:35:51.906Z,97592.34
2022-09-30T01:41:20.950Z,97596.16
2022-09-30T01:46:52.996Z,97612.38
2022-09-30T01:52:24.893Z,97619.84
2022-09-30T01:57:52.949Z,97623.53
2022-09-30T02:03:24.911Z,97629.97
2022-09-30T02:08:56.968Z,97632.13
2022-09-30T02:14:28.946Z,97634.09
2022-09-30T02:19:56.943Z,97645.25
2022-09-30T02:25:26.926Z,97630.53
2022-09-30T02:30:56.895Z,97638.97
2022-09-30T02:36:35.929Z,97645.06
2022-09-30T02:42:09.976Z,97650.16
2022-09-30T02:47:59.916Z,97663.09
2022-09-30T02:53:33.946Z,97662.84
2022-09-30T02:59:02.966Z,97658.94
2022-09-30T03:04:31.943Z,97666.56
2022-09-30T03:09:55.931Z,97664.34
2022-09-30T03:15:39.930Z,97668.56
2022-09-30T03:21:19.930Z,97671.50
2022-09-30T03:26:52.019Z,97670.25
2022-09-30T03:32:32.976Z,97684.19
2022-09-30T03:38:16.978Z,97695.03
2022-09-30T03:43:46.972Z,97707.78
2022-09-30T03:49:19.056Z,97709.06
2022-09-30T03:54:53.001Z,97719.75
2022-09-30T04:00:17.970Z,97712.03
2022-09-30T04:05:47.974Z,97710.63
2022-09-30T04:11:11.999Z,97711.75
2022-09-30T04:16:39.015Z,97702.34
2022-09-30T04:22:06.961Z,97709.94
2022-09-30T04:27:31.967Z,97709.38
2022-09-30T04:32:58.014Z,97716.94
2022-09-30T04:38:31.978Z,97725.09
2022-09-30T04:43:57.970Z,97732.41
2022-09-30T04:49:23.017Z,97738.00
2022-09-30T04:54:50.974Z,97741.53
2022-09-30T05:00:16.000Z,97749.22
2022-09-30T05:05:42.011Z,97756.81
2022-09-30T05:11:15.010Z,97766.22
2022-09-30T05:16:40.056Z,97775.78
2022-09-30T05:22:04.015Z,97781.69
2022-09-30T05:27:32.105Z,97773.13
2022-09-30T05:32:56.017Z,97782.66
2022-09-30T05:38:27.013Z,97781.56
2022-09-30T05:43:55.031Z,97793.50
2022-09-30T05:49:18.990Z,97797.00
2022-09-30T05:54:51.094Z,97796.16
2022-09-30T06:00:18.010Z,97801.63
2022-09-30T06:05:42.996Z,97810.63
2022-09-30T06:11:08.032Z,97810.78
2022-09-30T06:16:36.131Z,97827.59
2022-09-30T06:22:00.052Z,97831.13
2022-09-30T06:27:25.024Z,97837.88
2022-09-30T06:32:52.023Z,97845.31
2022-09-30T06:38:25.025Z,97853.78
2022-09-30T06:43:51.499Z,97852.06
2022-09-30T06:49:24.243Z,97858.56
2022-09-30T06:54:50.086Z,97867.53
2022-09-30T07:00:14.071Z,97884.41
2022-09-30T07:05:42.004Z,97891.97
2022-09-30T07:11:06.044Z,97909.69
2022-09-30T07:16:32.123Z,97903.47
2022-09-30T07:21:59.054Z,97905.00
2022-09-30T07:27:24.043Z,97911.16
2022-09-30T07:32:48.095Z,97917.38
2022-09-30T07:38:24.056Z,97915.22
2022-09-30T07:43:53.042Z,97921.25
2022-09-30T07:49:19.104Z,97938.09
2022-09-30T07:54:50.528Z,97950.41
2022-09-30T08:00:40.979Z,97955.28
2022-09-30T08:06:01.085Z,97960.81
2022-09-30T08:11:29.105Z,97968.66
2022-09-30T08:16:54.106Z,97976.13
2022-09-30T08:22:20.165Z,97975.47
2022-09-30T08:27:48.100Z,97961.53
2022-09-30T08:33:14.079Z,97965.34
2022-09-30T08:38:45.098Z,97965.19
2022-09-30T08:44:24.301Z,97956.25
2022-09-30T08:50:00.048Z,97949.13
2022-09-30T08:55:30.088Z,97948.75
2022-09-30T09:00:58.135Z,97943.19
2022-09-30T09:06:32.103Z,97943.16
2022-09-30T09:12:13.079Z,97930.09
2022-09-30T09:18:18.787Z,97908.78
2022-09-30T09:23:40.095Z,97917.19
2022-09-30T09:29:18.150Z,97906.97
2022-09-30T09:34:48.128Z,97909.50
2022-09-30T09:40:21.130Z,97906.47
2022-09-30T09:45:54.132Z,97912.66
2022-09-30T09:51:31.138Z,97907.41
2022-09-30T09:56:55.107Z,97900.66
2022-09-30T10:02:29.147Z,97897.22
2022-09-30T10:08:03.099Z,97905.56
2022-09-30T10:13:31.137Z,97896.72
2022-09-30T10:19:02.410Z,97890.41
2022-09-30T10:24:38.144Z,97901.38
2022-09-30T10:30:03.159Z,97894.38
2022-09-30T10:35:33.134Z,97887.84
2022-09-30T10:41:04.145Z,97892.44
2022-09-30T10:46:33.190Z,97874.28
2022-09-30T10:52:02.134Z,97870.41
2022-09-30T10:57:34.183Z,97860.50
2022-09-30T11:03:03.263Z,97869.25
2022-09-30T11:08:35.148Z,97863.91
2022-09-30T11:14:07.159Z,97857.06
2022-09-30T11:19:38.140Z,97852.19
2022-09-30T11:25:11.060Z,97853.22
2022-09-30T11:30:49.158Z,97838.69
2022-09-30T11:36:24.209Z,97851.03
2022-09-30T11:41:55.172Z,97846.81
2022-09-30T11:47:43.207Z,97847.59
2022-09-30T11:53:19.207Z,97843.91
2022-09-30T11:58:50.197Z,97838.41
2022-09-30T12:04:23.168Z,97846.78
2022-09-30T12:09:52.177Z,97846.94
2022-09-30T12:15:26.189Z,97850.38
2022-09-30T12:20:57.202Z,97851.28
2022-09-30T12:26:25.199Z,97840.00
2022-09-30T12:32:18.230Z,97850.22
2022-09-30T12:38:05.215Z,97853.56
2022-09-30T12:43:54.207Z,97845.31
2022-09-30T12:49:26.228Z,97846.22
2022-09-30T12:54:58.192Z,97842.47
2022-09-30T13:00:26.221Z,97842.44
2022-09-30T13:06:13.375Z,97847.06
2022-09-30T13:11:51.329Z,97843.09
2022-09-30T13:17:43.295Z,97836.53
2022-09-30T13:23:08.240Z,97837.78
2022-09-30T13:28:53.247Z,97826.88
2022-09-30T13:34:22.222Z,97844.28
2022-09-30T13:39:59.683Z,97842.28
2022-09-30T13:45:31.335Z,97841.59
2022-09-30T13:51:01.268Z,97847.06
2022-09-30T13:56:36.287Z,97847.28
2022-09-30T14:02:41.475Z,97842.88
2022-09-30T14:08:23.316Z,97842.44
2022-09-30T14:13:57.250Z,97855.81
2022-09-30T14:19:42.308Z,97858.06
2022-09-30T14:25:07.271Z,97854.91
2022-09-30T14:30:36.284Z,97858.66
2022-09-30T14:36:04.479Z,97847.97
2022-09-30T14:41:36.249Z,97843.59
2022-09-30T14:47:07.413Z,97850.19
2022-09-30T14:52:54.271Z,97850.72
2022-09-30T14:58:37.301Z,97853.56
2022-09-30T15:04:07.312Z,97850.84
2022-09-30T15:09:39.315Z,97851.06
2022-09-30T15:15:05.316Z,97855.38
2022-09-30T15:20:39.314Z,97846.81
2022-09-30T15:26:18.289Z,97852.91
2022-09-30T15:31:44.397Z,97854.56
2022-09-30T15:37:18.317Z,97861.81
2022-09-30T15:42:51.318Z,97859.28
2022-09-30T15:48:17.367Z,97853.53
2022-09-30T15:53:58.324Z,97852.97
2022-09-30T15:59:29.312Z,97853.22
2022-09-30T16:05:02.339Z,97858.53
2022-09-30T16:10:37.332Z,97854.72
2022-09-30T16:16:08.363Z,97852.31
2022-09-30T16:22:03.365Z,97866.50
2022-09-30T16:27:39.357Z,97861.22
2022-09-30T16:33:08.387Z,97867.25
2022-09-30T16:38:35.366Z,97868.44
2022-09-30T16:44:02.360Z,97868.72
2022-09-30T16:49:30.351Z,97881.31
2022-09-30T16:54:55.355Z,97878.00
2022-09-30T17:00:24.424Z,97880.88
2022-09-30T17:06:01.404Z,97880.84
2022-09-30T17:11:26.372Z,97889.25
2022-09-30T17:16:59.359Z,97900.09
2022-09-30T17:22:27.363Z,97906.31
2022-09-30T17:27:51.500Z,97904.94
2022-09-30T17:33:16.378Z,97909.53
2022-09-30T17:38:43.414Z,97906.50
2022-09-30T17:44:09.365Z,97904.91
2022-09-30T17:49:34.410Z,97907.19
2022-09-30T17:55:02.369Z,97904.09
2022-09-30T18:00:28.503Z,97891.22
2022-09-30T18:05:53.535Z,97905.19
2022-09-30T18:11:20.528Z,97905.97
2022-09-30T18:16:49.473Z,97895.41
2022-09-30T18:22:13.383Z,97908.88
2022-09-30T18:27:41.396Z,97901.53
2022-09-30T18:33:07.440Z,97918.63
2022-09-30T18:38:34.431Z,97912.44
2022-09-30T18:44:09.415Z,97909.97
2022-09-30T18:49:34.449Z,97920.81
2022-09-30T18:55:01.416Z,97930.44
2022-09-30T19:00:29.499Z,97930.81
2022-09-30T19:06:01.464Z,97927.78
2022-09-30T19:16:51.654Z,97929.81
2022-09-30T19:22:17.531Z,97935.72
2022-09-30T19:27:42.807Z,97945.97
2022-09-30T19:33:10.443Z,97933.50
2022-09-30T19:38:38.172Z,97943.78
2022-09-30T19:44:03.529Z,97944.28
2022-09-30T19:49:31.442Z,97946.78
2022-09-30T19:55:07.591Z,97949.13
2022-09-30T20:00:34.435Z,97954.50
2022-09-30T20:06:12.459Z,97953.63
2022-09-30T20:11:39.475Z,97943.03
2022-09-30T20:17:03.456Z,97945.84
2022-09-30T20:22:32.458Z,97936.56
2022-09-30T20:27:56.550Z,97940.75
2022-09-30T20:33:24.478Z,97936.00
2022-09-30T20:38:54.505Z,97940.66
2022-09-30T20:44:22.490Z,97929.03
2022-09-30T20:49:46.782Z,97922.16
2022-09-30T20:55:16.556Z,97921.94
2022-09-30T21:00:41.586Z,97919.56
2022-09-30T21:06:13.521Z,97915.19
2022-09-30T21:11:41.156Z,97928.09
2022-09-30T21:17:04.528Z,97924.19
2022-09-30T21:22:29.540Z,97930.03
2022-09-30T21:28:01.602Z,97934.69
2022-09-30T21:33:26.508Z,97947.19
2022-09-30T21:38:51.737Z,97944.69
2022-09-30T21:44:19.558Z,97959.63
2022-09-30T21:49:45.651Z,97957.09
2022-09-30T21:55:13.602Z,97953.94
2022-09-30T22:00:40.557Z,97959.63
2022-09-30T22:06:07.793Z,97957.09
2022-09-30T22:11:35.977Z,97952.72
2022-09-30T22:17:04.501Z,97954.88
2022-09-30T22:22:28.764Z,97953.34
2022-09-30T22:27:53.533Z,97956.03
2022-09-30T22:33:33.613Z,97964.53
2022-09-30T22:39:16.661Z,97965.22
2022-09-30T22:44:43.630Z,97961.94
2022-09-30T22:50:11.546Z,97947.19
2022-09-30T22:55:38.571Z,97944.97
2022-09-30T23:01:10.554Z,97939.94
2022-09-30T23:06:38.567Z,97929.53
2022-09-30T23:12:04.551Z,97929.66
2022-09-30T23:17:29.573Z,97923.94
2022-09-30T23:22:56.617Z,97935.97
2022-09-30T23:28:21.596Z,97929.56
2022-09-30T23:33:46.578Z,97928.00
2022-09-30T23:39:18.698Z,97929.19
2022-09-30T23:44:42.598Z,97931.16
2022-09-30T23:50:07.591Z,97923.28
2022-09-30T23:55:34.594Z,97919.09
